sensor_id;sensor_type;location;lat;lon;timestamp;pressure;altitude;pressure_sealevel;temperature;humidity
9672;BME280;4874;43.568;27.824;2022-12-26T00:02:04;100028.94;;;5.65;100.00
9672;BME280;4874;43.568;27.824;2022-12-26T00:04:31;100010.22;;;5.40;100.00
9672;BME280;4874;43.568;27.824;2022-12-26T00:07:17;100029.03;;;5.48;100.00
9672;BME280;4874;43.568;27.824;2022-12-26T00:09:44;100018.00;;;5.57;100.00
9672;BME280;4874;43.568;27.824;2022-12-26T00:12:11;100025.06;;;5.41;100.00
9672;BME280;4874;43.568;27.824;2022-12-26T00:14:38;99992.66;;;4.94;100.00
9672;BME280;4874;43.568;27.824;2022-12-26T00:17:05;100036.53;;;5.24;100.00
9672;BME280;4874;43.568;27.824;2022-12-26T00:19:31;100042.47;;;5.28;100.00
9672;BME280;4874;43.568;27.824;2022-12-26T00:21:58;100033.63;;;5.29;100.00
9672;BME280;4874;43.568;27.824;2022-12-26T00:24:25;100036.19;;;5.30;100.00
9672;BME280;4874;43.568;27.824;2022-12-26T00:26:51;100031.41;;;5.21;100.00
9672;BME280;4874;43.568;27.824;2022-12-26T00:29:18;100039.66;;;5.00;100.00
9672;BME280;4874;43.568;27.824;2022-12-26T00:31:45;100044.84;;;5.01;100.00
9672;BME280;4874;43.568;27.824;2022-12-26T00:34:12;100038.31;;;5.24;100.00
9672;BME280;4874;43.568;27.824;2022-12-26T00:36:39;100046.13;;;5.41;100.00
9672;BME280;4874;43.568;27.824;2022-12-26T00:39:05;100018.03;;;5.10;100.00
9672;BME280;4874;43.568;27.824;2022-12-26T00:41:32;100047.66;;;5.29;100.00
9672;BME280;4874;43.568;27.824;2022-12-26T00:43:59;100040.75;;;5.42;100.00
9672;BME280;4874;43.568;27.824;2022-12-26T00:46:26;99987.38;;;4.94;100.00
9672;BME280;4874;43.568;27.824;2022-12-26T00:48:53;99997.97;;;5.08;100.00
9672;BME280;4874;43.568;27.824;2022-12-26T00:51:20;100043.81;;;5.50;100.00
9672;BME280;4874;43.568;27.824;2022-12-26T00:53:47;100031.09;;;5.43;100.00
9672;BME280;4874;43.568;27.824;2022-12-26T00:56:13;100037.63;;;5.51;100.00
9672;BME280;4874;43.568;27.824;2022-12-26T00:58:41;99998.56;;;5.28;100.00
9672;BME280;4874;43.568;27.824;2022-12-26T01:01:15;100001.28;;;5.11;100.00
9672;BME280;4874;43.568;27.824;2022-12-26T01:03:43;100028.09;;;5.18;100.00
9672;BME280;4874;43.568;27.824;2022-12-26T01:06:11;100030.41;;;5.24;100.00
9672;BME280;4874;43.568;27.824;2022-12-26T01:08:38;100017.06;;;5.27;100.00
9672;BME280;4874;43.568;27.824;2022-12-26T01:11:08;100021.44;;;5.28;100.00
9672;BME280;4874;43.568;27.824;2022-12-26T01:13:35;100035.34;;;5.14;100.00
9672;BME280;4874;43.568;27.824;2022-12-26T01:16:02;99982.03;;;4.95;100.00
9672;BME280;4874;43.568;27.824;2022-12-26T01:18:31;100032.53;;;5.33;100.00
9672;BME280;4874;43.568;27.824;2022-12-26T01:21:04;100037.22;;;5.28;100.00
9672;BME280;4874;43.568;27.824;2022-12-26T01:23:31;100031.16;;;5.57;100.00
9672;BME280;4874;43.568;27.824;2022-12-26T01:25:57;100038.22;;;5.41;100.00
9672;BME280;4874;43.568;27.824;2022-12-26T01:28:44;100028.88;;;5.35;100.00
9672;BME280;4874;43.568;27.824;2022-12-26T01:31:11;100026.00;;;5.24;100.00
9672;BME280;4874;43.568;27.824;2022-12-26T01:33:38;100028.47;;;5.27;100.00
9672;BME280;4874;43.568;27.824;2022-12-26T01:36:05;100033.81;;;5.26;100.00
9672;BME280;4874;43.568;27.824;2022-12-26T01:38:31;100029.81;;;5.34;100.00
9672;BME280;4874;43.568;27.824;2022-12-26T01:40:58;100035.25;;;5.16;100.00
9672;BME280;4874;43.568;27.824;2022-12-26T01:43:54;100052.84;;;5.31;100.00
9672;BME280;4874;43.568;27.824;2022-12-26T01:46:34;100027.69;;;5.41;100.00
9672;BME280;4874;43.568;27.824;2022-12-26T01:49:42;100031.41;;;5.37;100.00
9672;BME280;4874;43.568;27.824;2022-12-26T01:52:16;100040.94;;;5.08;100.00
9672;BME280;4874;43.568;27.824;2022-12-26T01:54:47;100035.19;;;5.33;100.00
9672;BME280;4874;43.568;27.824;2022-12-26T01:57:29;100037.94;;;4.83;100.00
9672;BME280;4874;43.568;27.824;2022-12-26T01:59:57;100070.19;;;4.87;100.00
9672;BME280;4874;43.568;27.824;2022-12-26T02:02:28;100059.63;;;5.04;100.00
9672;BME280;4874;43.568;27.824;2022-12-26T02:04:56;100046.03;;;5.11;100.00
9672;BME280;4874;43.568;27.824;2022-12-26T02:07:44;100064.72;;;5.22;100.00
9672;BME280;4874;43.568;27.824;2022-12-26T02:10:17;100068.34;;;5.04;100.00
9672;BME280;4874;43.568;27.824;2022-12-26T02:12:47;100058.25;;;4.97;100.00
9672;BME280;4874;43.568;27.824;2022-12-26T02:15:15;100066.94;;;5.14;100.00
9672;BME280;4874;43.568;27.824;2022-12-26T02:17:43;100060.13;;;5.10;100.00
9672;BME280;4874;43.568;27.824;2022-12-26T02:20:23;100057.59;;;5.09;100.00
9672;BME280;4874;43.568;27.824;2022-12-26T02:26:22;100055.69;;;4.95;100.00
9672;BME280;4874;43.568;27.824;2022-12-26T02:31:44;100035.78;;;4.74;100.00
9672;BME280;4874;43.568;27.824;2022-12-26T02:34:22;100037.69;;;4.88;100.00
9672;BME280;4874;43.568;27.824;2022-12-26T02:40:05;100055.31;;;4.86;100.00
9672;BME280;4874;43.568;27.824;2022-12-26T02:42:58;100050.25;;;4.82;100.00
9672;BME280;4874;43.568;27.824;2022-12-26T02:45:37;100026.63;;;4.65;100.00
9672;BME280;4874;43.568;27.824;2022-12-26T02:51:10;100049.22;;;4.69;100.00
9672;BME280;4874;43.568;27.824;2022-12-26T02:54:16;100060.84;;;4.48;100.00
9672;BME280;4874;43.568;27.824;2022-12-26T02:57:07;100045.75;;;4.52;100.00
9672;BME280;4874;43.568;27.824;2022-12-26T03:00:32;100060.25;;;4.26;100.00
9672;BME280;4874;43.568;27.824;2022-12-26T03:03:20;100062.16;;;4.40;100.00
9672;BME280;4874;43.568;27.824;2022-12-26T03:06:25;100073.38;;;4.26;100.00
9672;BME280;4874;43.568;27.824;2022-12-26T03:09:19;100064.41;;;4.13;100.00
9672;BME280;4874;43.568;27.824;2022-12-26T03:15:12;100058.63;;;4.07;100.00
9672;BME280;4874;43.568;27.824;2022-12-26T03:17:48;100058.06;;;4.00;100.00
9672;BME280;4874;43.568;27.824;2022-12-26T03:20:22;100062.34;;;4.03;100.00
9672;BME280;4874;43.568;27.824;2022-12-26T03:22:54;100051.34;;;3.95;100.00
9672;BME280;4874;43.568;27.824;2022-12-26T03:28:20;100058.06;;;3.83;100.00
9672;BME280;4874;43.568;27.824;2022-12-26T03:30:48;100034.63;;;3.44;100.00
9672;BME280;4874;43.568;27.824;2022-12-26T03:33:37;100059.72;;;3.67;100.00
9672;BME280;4874;43.568;27.824;2022-12-26T03:36:24;100054.09;;;3.57;100.00
9672;BME280;4874;43.568;27.824;2022-12-26T03:42:17;100054.59;;;3.47;100.00
9672;BME280;4874;43.568;27.824;2022-12-26T03:48:25;100066.22;;;3.77;100.00
9672;BME280;4874;43.568;27.824;2022-12-26T03:57:52;100056.81;;;3.73;100.00
9672;BME280;4874;43.568;27.824;2022-12-26T04:00:40;100056.06;;;4.05;100.00
9672;BME280;4874;43.568;27.824;2022-12-26T04:03:29;100055.72;;;3.77;100.00
9672;BME280;4874;43.568;27.824;2022-12-26T04:06:19;100066.28;;;3.58;100.00
9672;BME280;4874;43.568;27.824;2022-12-26T04:09:20;100064.63;;;3.75;100.00
9672;BME280;4874;43.568;27.824;2022-12-26T04:12:26;100046.47;;;3.70;100.00
9672;BME280;4874;43.568;27.824;2022-12-26T04:15:20;100058.16;;;3.82;100.00
9672;BME280;4874;43.568;27.824;2022-12-26T04:18:14;100065.88;;;3.85;100.00
9672;BME280;4874;43.568;27.824;2022-12-26T04:24:07;100054.63;;;3.64;100.00
9672;BME280;4874;43.568;27.824;2022-12-26T04:26:56;100055.97;;;3.37;100.00
9672;BME280;4874;43.568;27.824;2022-12-26T04:29:44;100055.56;;;3.63;100.00
9672;BME280;4874;43.568;27.824;2022-12-26T04:32:49;100061.03;;;3.58;100.00
9672;BME280;4874;43.568;27.824;2022-12-26T04:35:50;100062.88;;;3.56;100.00
9672;BME280;4874;43.568;27.824;2022-12-26T04:38:40;100073.41;;;3.38;100.00
9672;BME280;4874;43.568;27.824;2022-12-26T04:41:28;100056.31;;;3.29;100.00
9672;BME280;4874;43.568;27.824;2022-12-26T04:44:16;100091.56;;;3.61;100.00
9672;BME280;4874;43.568;27.824;2022-12-26T04:46:46;100093.78;;;3.33;100.00
9672;BME280;4874;43.568;27.824;2022-12-26T04:49:15;100086.53;;;3.38;100.00
9672;BME280;4874;43.568;27.824;2022-12-26T04:52:05;100090.94;;;3.37;100.00
9672;BME280;4874;43.568;27.824;2022-12-26T04:54:32;100089.22;;;3.36;100.00
9672;BME280;4874;43.568;27.824;2022-12-26T04:56:59;100098.94;;;3.16;100.00
9672;BME280;4874;43.568;27.824;2022-12-26T04:59:26;100100.53;;;3.20;100.00
9672;BME280;4874;43.568;27.824;2022-12-26T05:01:53;100107.34;;;3.24;100.00
9672;BME280;4874;43.568;27.824;2022-12-26T05:04:38;100115.53;;;2.98;100.00
9672;BME280;4874;43.568;27.824;2022-12-26T05:07:27;100115.06;;;3.27;100.00
9672;BME280;4874;43.568;27.824;2022-12-26T05:10:23;100110.44;;;3.13;100.00
9672;BME280;4874;43.568;27.824;2022-12-26T05:12:51;100113.25;;;3.27;100.00
9672;BME280;4874;43.568;27.824;2022-12-26T05:15:18;100115.53;;;3.35;100.00
9672;BME280;4874;43.568;27.824;2022-12-26T05:17:45;100126.72;;;2.83;100.00
9672;BME280;4874;43.568;27.824;2022-12-26T05:20:30;100124.94;;;3.02;100.00
9672;BME280;4874;43.568;27.824;2022-12-26T05:23:23;100136.28;;;2.84;100.00
9672;BME280;4874;43.568;27.824;2022-12-26T05:26:22;100102.78;;;3.09;100.00
9672;BME280;4874;43.568;27.824;2022-12-26T05:29:07;100136.84;;;2.90;100.00
9672;BME280;4874;43.568;27.824;2022-12-26T05:31:34;100134.78;;;2.97;100.00
9672;BME280;4874;43.568;27.824;2022-12-26T05:34:04;100129.38;;;2.81;100.00
9672;BME280;4874;43.568;27.824;2022-12-26T05:39:05;100140.13;;;2.95;100.00
9672;BME280;4874;43.568;27.824;2022-12-26T05:41:32;100141.06;;;3.13;100.00
9672;BME280;4874;43.568;27.824;2022-12-26T05:43:59;100149.56;;;2.99;100.00
9672;BME280;4874;43.568;27.824;2022-12-26T05:46:26;100136.59;;;2.76;100.00
9672;BME280;4874;43.568;27.824;2022-12-26T05:48:53;100137.34;;;2.98;100.00
9672;BME280;4874;43.568;27.824;2022-12-26T05:51:20;100139.50;;;3.09;100.00
9672;BME280;4874;43.568;27.824;2022-12-26T05:53:46;100142.19;;;3.07;100.00
9672;BME280;4874;43.568;27.824;2022-12-26T05:56:15;100120.72;;;2.99;100.00
9672;BME280;4874;43.568;27.824;2022-12-26T05:58:42;100080.78;;;2.74;100.00
9672;BME280;4874;43.568;27.824;2022-12-26T06:01:12;100132.56;;;3.08;100.00
9672;BME280;4874;43.568;27.824;2022-12-26T06:03:39;100125.72;;;3.24;100.00
9672;BME280;4874;43.568;27.824;2022-12-26T06:06:09;100134.53;;;3.03;100.00
9672;BME280;4874;43.568;27.824;2022-12-26T06:08:37;100124.19;;;3.00;100.00
9672;BME280;4874;43.568;27.824;2022-12-26T06:11:09;100114.91;;;3.30;100.00
9672;BME280;4874;43.568;27.824;2022-12-26T06:13:37;100118.66;;;3.24;100.00
9672;BME280;4874;43.568;27.824;2022-12-26T06:16:10;100112.91;;;3.35;100.00
9672;BME280;4874;43.568;27.824;2022-12-26T06:18:37;100071.75;;;3.00;100.00
9672;BME280;4874;43.568;27.824;2022-12-26T06:21:10;100118.81;;;3.40;100.00
9672;BME280;4874;43.568;27.824;2022-12-26T06:23:37;100114.75;;;3.33;100.00
9672;BME280;4874;43.568;27.824;2022-12-26T06:26:05;100120.81;;;4.06;100.00
9672;BME280;4874;43.568;27.824;2022-12-26T06:28:33;100108.41;;;3.74;100.00
9672;BME280;4874;43.568;27.824;2022-12-26T06:31:11;100120.34;;;3.98;100.00
9672;BME280;4874;43.568;27.824;2022-12-26T06:33:38;100118.88;;;4.10;100.00
9672;BME280;4874;43.568;27.824;2022-12-26T06:36:07;100119.28;;;4.19;100.00
9672;BME280;4874;43.568;27.824;2022-12-26T06:38:35;100106.91;;;4.55;100.00
9672;BME280;4874;43.568;27.824;2022-12-26T06:41:11;100071.13;;;4.86;100.00
9672;BME280;4874;43.568;27.824;2022-12-26T06:43:39;100124.34;;;5.54;100.00
9672;BME280;4874;43.568;27.824;2022-12-26T06:46:07;100142.34;;;5.31;100.00
9672;BME280;4874;43.568;27.824;2022-12-26T06:48:35;100144.16;;;5.61;100.00
9672;BME280;4874;43.568;27.824;2022-12-26T06:51:08;100135.47;;;5.59;100.00
9672;BME280;4874;43.568;27.824;2022-12-26T06:53:35;100142.19;;;5.65;100.00
9672;BME280;4874;43.568;27.824;2022-12-26T06:56:07;100158.31;;;5.59;100.00
9672;BME280;4874;43.568;27.824;2022-12-26T06:58:34;100143.19;;;5.62;100.00
9672;BME280;4874;43.568;27.824;2022-12-26T07:01:09;100159.41;;;5.87;100.00
9672;BME280;4874;43.568;27.824;2022-12-26T07:03:37;100154.78;;;6.07;100.00
9672;BME280;4874;43.568;27.824;2022-12-26T07:06:11;100151.69;;;6.59;100.00
9672;BME280;4874;43.568;27.824;2022-12-26T07:08:38;100156.22;;;6.71;100.00
9672;BME280;4874;43.568;27.824;2022-12-26T07:11:15;100129.84;;;6.99;100.00
9672;BME280;4874;43.568;27.824;2022-12-26T07:13:42;100157.50;;;7.36;100.00
9672;BME280;4874;43.568;27.824;2022-12-26T07:16:10;100170.06;;;7.47;100.00
9672;BME280;4874;43.568;27.824;2022-12-26T07:18:36;100160.19;;;7.63;100.00
9672;BME280;4874;43.568;27.824;2022-12-26T07:21:08;100163.94;;;7.87;100.00
9672;BME280;4874;43.568;27.824;2022-12-26T07:23:35;100165.09;;;8.09;100.00
9672;BME280;4874;43.568;27.824;2022-12-26T07:26:03;100165.63;;;7.47;100.00
9672;BME280;4874;43.568;27.824;2022-12-26T07:28:30;100162.94;;;7.75;100.00
9672;BME280;4874;43.568;27.824;2022-12-26T07:30:57;100161.75;;;8.20;100.00
9672;BME280;4874;43.568;27.824;2022-12-26T07:33:26;100168.06;;;8.31;100.00
9672;BME280;4874;43.568;27.824;2022-12-26T07:35:57;100172.44;;;8.45;100.00
9672;BME280;4874;43.568;27.824;2022-12-26T07:38:24;100164.34;;;8.61;100.00
9672;BME280;4874;43.568;27.824;2022-12-26T07:40:54;100167.88;;;8.86;100.00
9672;BME280;4874;43.568;27.824;2022-12-26T07:43:21;100165.88;;;8.77;100.00
9672;BME280;4874;43.568;27.824;2022-12-26T07:45:48;100164.28;;;8.09;100.00
9672;BME280;4874;43.568;27.824;2022-12-26T07:48:14;100167.13;;;8.32;100.00
9672;BME280;4874;43.568;27.824;2022-12-26T07:50:41;100164.88;;;8.26;100.00
9672;BME280;4874;43.568;27.824;2022-12-26T07:53:13;100131.53;;;7.57;100.00
9672;BME280;4874;43.568;27.824;2022-12-26T07:55:40;100167.44;;;7.73;100.00
9672;BME280;4874;43.568;27.824;2022-12-26T07:58:07;100170.31;;;7.42;100.00
9672;BME280;4874;43.568;27.824;2022-12-26T08:00:33;100170.81;;;7.35;100.00
9672;BME280;4874;43.568;27.824;2022-12-26T08:03:00;100151.66;;;7.31;100.00
9672;BME280;4874;43.568;27.824;2022-12-26T08:05:32;100170.25;;;7.44;100.00
9672;BME280;4874;43.568;27.824;2022-12-26T08:07:59;100164.38;;;7.53;100.00
9672;BME280;4874;43.568;27.824;2022-12-26T08:10:26;100158.16;;;7.54;100.00
9672;BME280;4874;43.568;27.824;2022-12-26T08:12:53;100151.91;;;7.41;100.00
9672;BME280;4874;43.568;27.824;2022-12-26T08:15:19;100173.44;;;7.49;100.00
9672;BME280;4874;43.568;27.824;2022-12-26T08:17:46;100170.41;;;7.55;100.00
9672;BME280;4874;43.568;27.824;2022-12-26T08:20:13;100166.34;;;7.63;100.00
9672;BME280;4874;43.568;27.824;2022-12-26T08:22:39;100153.13;;;7.63;100.00
9672;BME280;4874;43.568;27.824;2022-12-26T08:25:06;100149.84;;;7.46;100.00
9672;BME280;4874;43.568;27.824;2022-12-26T08:27:33;100144.69;;;7.85;100.00
9672;BME280;4874;43.568;27.824;2022-12-26T08:30:00;100150.94;;;7.70;100.00
9672;BME280;4874;43.568;27.824;2022-12-26T08:32:27;100123.81;;;7.54;100.00
9672;BME280;4874;43.568;27.824;2022-12-26T08:34:53;100147.75;;;7.65;100.00
9672;BME280;4874;43.568;27.824;2022-12-26T08:37:20;100154.22;;;7.87;100.00
9672;BME280;4874;43.568;27.824;2022-12-26T08:39:50;100093.34;;;7.34;100.00
9672;BME280;4874;43.568;27.824;2022-12-26T08:42:20;100164.72;;;7.75;100.00
9672;BME280;4874;43.568;27.824;2022-12-26T08:44:47;100142.94;;;7.98;100.00
9672;BME280;4874;43.568;27.824;2022-12-26T08:47:14;100108.66;;;7.70;100.00
9672;BME280;4874;43.568;27.824;2022-12-26T08:49:40;100139.81;;;8.05;100.00
9672;BME280;4874;43.568;27.824;2022-12-26T08:52:07;100132.56;;;8.21;100.00
9672;BME280;4874;43.568;27.824;2022-12-26T08:54:34;100125.13;;;8.41;100.00
9672;BME280;4874;43.568;27.824;2022-12-26T08:57:00;100119.88;;;8.53;100.00
9672;BME280;4874;43.568;27.824;2022-12-26T08:59:27;100074.13;;;8.26;100.00
9672;BME280;4874;43.568;27.824;2022-12-26T09:01:54;100116.28;;;8.67;100.00
9672;BME280;4874;43.568;27.824;2022-12-26T09:04:20;100110.16;;;8.66;100.00
9672;BME280;4874;43.568;27.824;2022-12-26T09:06:47;100116.16;;;8.56;100.00
9672;BME280;4874;43.568;27.824;2022-12-26T09:09:14;100108.16;;;8.82;100.00
9672;BME280;4874;43.568;27.824;2022-12-26T09:11:40;100105.72;;;8.79;100.00
9672;BME280;4874;43.568;27.824;2022-12-26T09:14:08;100106.88;;;8.88;100.00
9672;BME280;4874;43.568;27.824;2022-12-26T09:16:42;100101.59;;;8.88;100.00
9672;BME280;4874;43.568;27.824;2022-12-26T09:19:15;100068.34;;;8.59;100.00
9672;BME280;4874;43.568;27.824;2022-12-26T09:21:43;100086.44;;;8.77;100.00
9672;BME280;4874;43.568;27.824;2022-12-26T09:24:13;100081.13;;;8.90;100.00
9672;BME280;4874;43.568;27.824;2022-12-26T09:26:40;100081.25;;;9.01;100.00
9672;BME280;4874;43.568;27.824;2022-12-26T09:29:09;100070.19;;;9.07;100.00
9672;BME280;4874;43.568;27.824;2022-12-26T09:31:36;100073.41;;;8.99;100.00
9672;BME280;4874;43.568;27.824;2022-12-26T09:34:04;100065.22;;;9.15;100.00
9672;BME280;4874;43.568;27.824;2022-12-26T09:36:34;100065.53;;;9.10;100.00
9672;BME280;4874;43.568;27.824;2022-12-26T09:39:03;100060.44;;;9.20;100.00
9672;BME280;4874;43.568;27.824;2022-12-26T09:44:27;100060.72;;;9.40;100.00
9672;BME280;4874;43.568;27.824;2022-12-26T09:50:23;100063.75;;;9.47;100.00
9672;BME280;4874;43.568;27.824;2022-12-26T09:55:25;100058.47;;;9.47;100.00
9672;BME280;4874;43.568;27.824;2022-12-26T09:57:57;100059.16;;;9.62;100.00
9672;BME280;4874;43.568;27.824;2022-12-26T10:00:36;100055.94;;;9.69;100.00
9672;BME280;4874;43.568;27.824;2022-12-26T10:03:09;100048.25;;;9.77;100.00
9672;BME280;4874;43.568;27.824;2022-12-26T10:05:56;100038.00;;;9.73;100.00
9672;BME280;4874;43.568;27.824;2022-12-26T10:17:22;99983.09;;;9.86;100.00
9672;BME280;4874;43.568;27.824;2022-12-26T10:25:02;100027.75;;;10.03;100.00
9672;BME280;4874;43.568;27.824;2022-12-26T10:27:38;100021.34;;;9.94;100.00
9672;BME280;4874;43.568;27.824;2022-12-26T10:30:06;100020.88;;;10.24;100.00
9672;BME280;4874;43.568;27.824;2022-12-26T10:32:43;100016.06;;;10.18;100.00
9672;BME280;4874;43.568;27.824;2022-12-26T10:36:00;100030.19;;;10.29;100.00
9672;BME280;4874;43.568;27.824;2022-12-26T10:38:32;100021.41;;;10.40;100.00
9672;BME280;4874;43.568;27.824;2022-12-26T10:41:05;100019.75;;;10.50;100.00
9672;BME280;4874;43.568;27.824;2022-12-26T10:43:37;100004.78;;;10.60;100.00
9672;BME280;4874;43.568;27.824;2022-12-26T10:46:47;100002.28;;;10.92;100.00
9672;BME280;4874;43.568;27.824;2022-12-26T10:49:17;100005.75;;;10.92;100.00
9672;BME280;4874;43.568;27.824;2022-12-26T10:51:45;100004.63;;;11.28;100.00
9672;BME280;4874;43.568;27.824;2022-12-26T10:54:15;99996.44;;;11.31;100.00
9672;BME280;4874;43.568;27.824;2022-12-26T10:56:44;99972.44;;;11.10;100.00
9672;BME280;4874;43.568;27.824;2022-12-26T10:59:16;99992.06;;;11.41;100.00
9672;BME280;4874;43.568;27.824;2022-12-26T11:01:44;99982.44;;;11.60;100.00
9672;BME280;4874;43.568;27.824;2022-12-26T11:04:20;99979.09;;;11.47;100.00
9672;BME280;4874;43.568;27.824;2022-12-26T11:07:10;99975.19;;;11.62;100.00
9672;BME280;4874;43.568;27.824;2022-12-26T11:09:41;99973.91;;;11.89;100.00
9672;BME280;4874;43.568;27.824;2022-12-26T11:12:20;99962.56;;;11.44;100.00
9672;BME280;4874;43.568;27.824;2022-12-26T11:14:49;99955.09;;;11.80;100.00
9672;BME280;4874;43.568;27.824;2022-12-26T11:17:28;99947.69;;;11.84;100.00
9672;BME280;4874;43.568;27.824;2022-12-26T11:22:42;99947.47;;;11.97;100.00
9672;BME280;4874;43.568;27.824;2022-12-26T11:27:38;99939.00;;;11.82;100.00
9672;BME280;4874;43.568;27.824;2022-12-26T11:32:47;99942.00;;;11.77;100.00
9672;BME280;4874;43.568;27.824;2022-12-26T11:35:21;99931.00;;;12.03;100.00
9672;BME280;4874;43.568;27.824;2022-12-26T11:37:54;99922.59;;;11.98;100.00
9672;BME280;4874;43.568;27.824;2022-12-26T11:40:25;99911.81;;;12.29;100.00
9672;BME280;4874;43.568;27.824;2022-12-26T11:42:57;99933.88;;;12.11;100.00
9672;BME280;4874;43.568;27.824;2022-12-26T11:45:27;99919.38;;;12.24;100.00
9672;BME280;4874;43.568;27.824;2022-12-26T11:47:59;99920.19;;;11.95;100.00
9672;BME280;4874;43.568;27.824;2022-12-26T11:50:28;99889.28;;;12.03;100.00
9672;BME280;4874;43.568;27.824;2022-12-26T12:00:37;99917.31;;;12.07;100.00
9672;BME280;4874;43.568;27.824;2022-12-26T12:03:12;99922.25;;;11.91;100.00
9672;BME280;4874;43.568;27.824;2022-12-26T12:09:24;99910.00;;;12.00;100.00
9672;BME280;4874;43.568;27.824;2022-12-26T12:17:37;99910.44;;;12.05;100.00
9672;BME280;4874;43.568;27.824;2022-12-26T12:20:27;99796.53;;;11.37;100.00
9672;BME280;4874;43.568;27.824;2022-12-26T12:36:20;99926.31;;;12.16;100.00
9672;BME280;4874;43.568;27.824;2022-12-26T12:42:10;99908.72;;;12.24;100.00
9672;BME280;4874;43.568;27.824;2022-12-26T12:50:36;99928.66;;;11.89;100.00
9672;BME280;4874;43.568;27.824;2022-12-26T12:53:22;99918.47;;;11.94;100.00
9672;BME280;4874;43.568;27.824;2022-12-26T12:56:00;99878.69;;;11.40;100.00
9672;BME280;4874;43.568;27.824;2022-12-26T13:01:54;99931.38;;;11.77;100.00
9672;BME280;4874;43.568;27.824;2022-12-26T13:04:28;99944.56;;;11.79;100.00
9672;BME280;4874;43.568;27.824;2022-12-26T13:07:29;99939.16;;;11.69;100.00
9672;BME280;4874;43.568;27.824;2022-12-26T13:10:00;99932.88;;;11.70;100.00
9672;BME280;4874;43.568;27.824;2022-12-26T13:12:34;99896.38;;;11.61;100.00
9672;BME280;4874;43.568;27.824;2022-12-26T13:15:26;99935.13;;;11.86;100.00
9672;BME280;4874;43.568;27.824;2022-12-26T13:20:55;99921.97;;;11.73;100.00
9672;BME280;4874;43.568;27.824;2022-12-26T13:23:30;99908.75;;;11.83;100.00
9672;BME280;4874;43.568;27.824;2022-12-26T13:26:20;99914.97;;;11.93;100.00
9672;BME280;4874;43.568;27.824;2022-12-26T13:29:11;99917.75;;;12.12;100.00
9672;BME280;4874;43.568;27.824;2022-12-26T13:31:40;99915.38;;;12.09;100.00
9672;BME280;4874;43.568;27.824;2022-12-26T13:34:15;99918.88;;;11.89;100.00
9672;BME280;4874;43.568;27.824;2022-12-26T13:36:47;99913.56;;;11.89;100.00
9672;BME280;4874;43.568;27.824;2022-12-26T13:39:29;99915.22;;;11.69;100.00
9672;BME280;4874;43.568;27.824;2022-12-26T13:44:53;99919.13;;;11.54;100.00
9672;BME280;4874;43.568;27.824;2022-12-26T13:47:33;99921.81;;;11.43;100.00
9672;BME280;4874;43.568;27.824;2022-12-26T13:55:56;99869.16;;;11.06;100.00
9672;BME280;4874;43.568;27.824;2022-12-26T13:58:45;99915.84;;;11.19;100.00
9672;BME280;4874;43.568;27.824;2022-12-26T14:15:07;99897.84;;;10.69;100.00
9672;BME280;4874;43.568;27.824;2022-12-26T14:23:46;99901.00;;;10.52;100.00
9672;BME280;4874;43.568;27.824;2022-12-26T14:41:05;99893.91;;;9.85;100.00
9672;BME280;4874;43.568;27.824;2022-12-26T14:43:37;99887.00;;;9.71;100.00
9672;BME280;4874;43.568;27.824;2022-12-26T14:48:59;99896.44;;;9.86;100.00
9672;BME280;4874;43.568;27.824;2022-12-26T14:51:42;99888.91;;;9.69;100.00
9672;BME280;4874;43.568;27.824;2022-12-26T14:56:51;99898.09;;;9.41;100.00
9672;BME280;4874;43.568;27.824;2022-12-26T14:59:30;99886.75;;;9.39;100.00
9672;BME280;4874;43.568;27.824;2022-12-26T15:02:28;99884.41;;;9.24;100.00
9672;BME280;4874;43.568;27.824;2022-12-26T15:05:04;99901.38;;;9.21;100.00
9672;BME280;4874;43.568;27.824;2022-12-26T15:07:48;99901.22;;;9.35;100.00
9672;BME280;4874;43.568;27.824;2022-12-26T15:31:36;99900.81;;;8.69;100.00
9672;BME280;4874;43.568;27.824;2022-12-26T16:02:37;99908.78;;;7.81;100.00
9672;BME280;4874;43.568;27.824;2022-12-26T16:08:04;99905.81;;;7.61;100.00
9672;BME280;4874;43.568;27.824;2022-12-26T16:10:35;99887.78;;;7.41;100.00
9672;BME280;4874;43.568;27.824;2022-12-26T16:15:32;99926.47;;;7.54;100.00
9672;BME280;4874;43.568;27.824;2022-12-26T16:18:13;99916.66;;;7.44;100.00
9672;BME280;4874;43.568;27.824;2022-12-26T16:20:41;99923.47;;;7.34;100.00
9672;BME280;4874;43.568;27.824;2022-12-26T16:23:28;99908.28;;;7.10;100.00
9672;BME280;4874;43.568;27.824;2022-12-26T16:25:57;99912.66;;;7.24;100.00
9672;BME280;4874;43.568;27.824;2022-12-26T16:28:38;99903.88;;;7.24;100.00
9672;BME280;4874;43.568;27.824;2022-12-26T16:31:06;99908.66;;;7.04;100.00
9672;BME280;4874;43.568;27.824;2022-12-26T16:33:41;99912.16;;;7.05;100.00
9672;BME280;4874;43.568;27.824;2022-12-26T16:36:10;99911.09;;;7.22;100.00
9672;BME280;4874;43.568;27.824;2022-12-26T16:38:38;99907.47;;;7.23;100.00
9672;BME280;4874;43.568;27.824;2022-12-26T16:43:44;99904.50;;;7.14;100.00
9672;BME280;4874;43.568;27.824;2022-12-26T16:46:11;99911.00;;;7.36;100.00
9672;BME280;4874;43.568;27.824;2022-12-26T16:48:39;99902.53;;;7.31;100.00
9672;BME280;4874;43.568;27.824;2022-12-26T16:53:53;99903.59;;;7.28;100.00
9672;BME280;4874;43.568;27.824;2022-12-26T16:58:56;99900.16;;;7.13;100.00
9672;BME280;4874;43.568;27.824;2022-12-26T17:01:30;99902.50;;;7.18;100.00
9672;BME280;4874;43.568;27.824;2022-12-26T17:04:14;99899.56;;;7.23;100.00
9672;BME280;4874;43.568;27.824;2022-12-26T17:07:03;99851.50;;;6.91;100.00
9672;BME280;4874;43.568;27.824;2022-12-26T17:09:42;99891.84;;;7.20;100.00
9672;BME280;4874;43.568;27.824;2022-12-26T17:12:37;99865.16;;;6.97;100.00
9672;BME280;4874;43.568;27.824;2022-12-26T17:15:05;99898.53;;;6.98;100.00
9672;BME280;4874;43.568;27.824;2022-12-26T17:17:35;99880.91;;;7.11;100.00
9672;BME280;4874;43.568;27.824;2022-12-26T17:20:35;99891.16;;;7.03;100.00
9672;BME280;4874;43.568;27.824;2022-12-26T17:23:31;99887.38;;;7.20;100.00
9672;BME280;4874;43.568;27.824;2022-12-26T17:26:37;99887.88;;;7.27;100.00